createdAt,value
2019-05-19T00:02:27.314Z,97.60
2019-05-19T00:06:30.789Z,97.10
2019-05-19T00:10:34.796Z,97.90
2019-05-19T00:14:38.323Z,98.10
2019-05-19T00:18:42.013Z,98.10
2019-05-19T00:22:45.485Z,97.90
2019-05-19T00:26:48.948Z,98.20
2019-05-19T00:30:52.418Z,98.70
2019-05-19T00:34:55.871Z,98.60
2019-05-19T00:38:59.610Z,97.70
2019-05-19T00:43:03.065Z,98.00
2019-05-19T00:47:06.774Z,99.20
2019-05-19T00:51:10.557Z,99.50
2019-05-19T00:55:15.103Z,99.00
2019-05-19T00:59:19.590Z,98.40
2019-05-19T01:03:23.050Z,98.50
2019-05-19T01:07:26.785Z,98.30
2019-05-19T01:11:30.531Z,98.30
2019-05-19T01:15:33.977Z,98.50
2019-05-19T01:19:37.438Z,99.10
2019-05-19T01:23:40.901Z,98.40
2019-05-19T01:27:44.631Z,98.50
2019-05-19T01:31:48.086Z,98.40
2019-05-19T01:35:51.585Z,99.20
2019-05-19T01:39:55.358Z,99.80
2019-05-19T01:43:58.838Z,99.80
2019-05-19T01:48:02.579Z,98.90
2019-05-19T01:52:06.034Z,99.00
2019-05-19T01:56:09.521Z,99.60
2019-05-19T02:00:13.511Z,99.70
2019-05-19T02:04:16.971Z,99.80
2019-05-19T02:08:20.694Z,99.30
2019-05-19T02:12:24.423Z,98.80
2019-05-19T02:16:27.995Z,98.50
2019-05-19T02:20:33.632Z,98.70
2019-05-19T02:24:36.594Z,99.30
2019-05-19T02:28:40.306Z,98.60
2019-05-19T02:32:43.779Z,98.50
2019-05-19T02:36:47.243Z,98.70
2019-05-19T02:40:56.414Z,98.60
2019-05-19T02:45:01.249Z,99.80
2019-05-19T02:49:05.638Z,99.70
2019-05-19T02:53:09.555Z,99.60
2019-05-19T02:57:13.321Z,99.60
2019-05-19T03:01:16.765Z,99.70
2019-05-19T03:05:20.475Z,99.90
2019-05-19T03:09:24.195Z,99.90
2019-05-19T03:13:27.655Z,99.80
2019-05-19T03:17:31.112Z,99.90
2019-05-19T03:21:34.592Z,99.90
2019-05-19T03:25:38.299Z,99.90
2019-05-19T03:29:46.714Z,99.90
2019-05-19T03:33:51.847Z,99.90
2019-05-19T03:37:55.380Z,99.90
2019-05-19T03:41:59.108Z,99.90
2019-05-19T03:46:02.578Z,99.90
2019-05-19T03:50:06.579Z,99.90
2019-05-19T03:54:10.318Z,99.90
2019-05-19T03:58:14.099Z,99.90
2019-05-19T04:02:17.565Z,99.90
2019-05-19T04:06:21.006Z,99.90
2019-05-19T04:10:24.486Z,99.90
2019-05-19T04:14:28.222Z,99.90
2019-05-19T04:18:31.689Z,99.90
2019-05-19T04:22:35.443Z,99.90
2019-05-19T04:26:39.207Z,99.90
2019-05-19T04:30:42.689Z,99.90
2019-05-19T04:34:46.169Z,99.90
2019-05-19T04:38:49.912Z,99.90
2019-05-19T04:42:53.361Z,99.90
2019-05-19T04:46:56.826Z,99.90
2019-05-19T04:51:00.542Z,99.90
2019-05-19T04:55:04.542Z,99.90
2019-05-19T04:59:08.008Z,99.90
2019-05-19T05:03:11.492Z,99.90
2019-05-19T05:07:15.203Z,99.90
2019-05-19T05:11:18.706Z,99.90
2019-05-19T05:15:22.172Z,99.90
2019-05-19T05:19:25.638Z,99.90
2019-05-19T05:23:29.483Z,99.90
2019-05-19T05:27:33.072Z,99.90
2019-05-19T05:31:36.750Z,99.90
2019-05-19T05:35:40.639Z,99.90
2019-05-19T05:39:44.334Z,99.90
2019-05-19T05:43:50.630Z,99.90
2019-05-19T05:47:54.503Z,99.90
2019-05-19T05:51:58.261Z,99.90
2019-05-19T05:56:01.722Z,99.90
2019-05-19T06:00:09.523Z,99.90
2019-05-19T06:04:13.000Z,99.90
2019-05-19T06:08:16.739Z,99.90
2019-05-19T06:12:20.300Z,99.90
2019-05-19T06:16:24.703Z,99.90
2019-05-19T06:20:28.228Z,99.90
2019-05-19T06:24:32.046Z,99.90
2019-05-19T06:28:35.788Z,99.90
2019-05-19T06:32:41.159Z,99.90
2019-05-19T06:36:44.621Z,99.90
2019-05-19T06:40:48.164Z,99.90
2019-05-19T06:44:51.883Z,99.90
2019-05-19T06:48:55.659Z,99.90
2019-05-19T06:53:12.688Z,99.90
2019-05-19T06:57:04.579Z,99.80
2019-05-19T07:01:08.167Z,99.20
2019-05-19T07:05:11.722Z,99.30
2019-05-19T07:09:15.545Z,98.80
2019-05-19T07:13:19.070Z,98.40
2019-05-19T07:17:22.542Z,97.50
2019-05-19T07:21:26.338Z,96.60
2019-05-19T07:25:30.069Z,95.80
2019-05-19T07:29:33.882Z,96.60
2019-05-19T07:33:37.594Z,96.00
2019-05-19T07:37:41.122Z,94.60
2019-05-19T07:41:44.606Z,95.10
2019-05-19T07:45:48.074Z,94.20
2019-05-19T07:49:51.554Z,95.10
2019-05-19T07:53:55.338Z,94.30
2019-05-19T07:57:58.796Z,93.70
2019-05-19T08:02:02.333Z,93.00
2019-05-19T08:06:06.386Z,94.10
2019-05-19T08:10:10.140Z,93.90
2019-05-19T08:14:14.123Z,91.50
2019-05-19T08:18:17.594Z,91.60
2019-05-19T08:22:21.122Z,89.70
2019-05-19T08:26:24.842Z,89.20
2019-05-19T08:30:28.769Z,88.10
2019-05-19T08:34:32.571Z,85.10
2019-05-19T08:38:36.102Z,83.90
2019-05-19T08:42:39.595Z,84.60
2019-05-19T08:46:43.157Z,84.10
2019-05-19T08:50:46.652Z,82.10
2019-05-19T08:54:50.121Z,83.30
2019-05-19T08:58:53.821Z,85.00
2019-05-19T09:02:57.274Z,80.50
2019-05-19T09:07:00.737Z,78.60
2019-05-19T09:11:04.245Z,77.10
2019-05-19T09:15:08.362Z,77.70
2019-05-19T09:19:11.830Z,77.90
2019-05-19T09:23:15.293Z,76.90
2019-05-19T09:27:18.769Z,77.70
2019-05-19T09:31:22.226Z,76.90
2019-05-19T09:35:25.699Z,73.60
2019-05-19T09:39:29.285Z,73.80
2019-05-19T09:43:32.756Z,77.30
2019-05-19T09:47:36.230Z,76.50
2019-05-19T09:51:39.757Z,74.00
2019-05-19T09:55:43.233Z,74.30
2019-05-19T09:59:46.683Z,71.10
2019-05-19T10:03:50.147Z,69.50
2019-05-19T10:07:53.618Z,73.30
2019-05-19T10:12:05.315Z,72.50
2019-05-19T10:16:08.848Z,72.50
2019-05-19T10:20:14.102Z,75.50
2019-05-19T10:24:17.599Z,76.90
2019-05-19T10:28:21.323Z,79.60
2019-05-19T10:32:25.039Z,80.70
2019-05-19T10:36:28.755Z,68.60
2019-05-19T10:40:32.206Z,69.10
2019-05-19T10:44:35.930Z,72.20
2019-05-19T10:48:39.402Z,71.90
2019-05-19T10:52:42.858Z,71.10
2019-05-19T10:56:46.314Z,74.00
2019-05-19T11:00:49.793Z,73.40
2019-05-19T11:04:53.512Z,67.50
2019-05-19T11:08:56.982Z,62.20
2019-05-19T11:13:00.438Z,69.50
2019-05-19T11:17:03.911Z,64.90
2019-05-19T11:21:07.674Z,63.00
2019-05-19T11:25:12.033Z,65.50
2019-05-19T11:29:15.502Z,56.60
2019-05-19T11:33:18.965Z,58.30
2019-05-19T11:37:22.423Z,55.30
2019-05-19T11:41:25.877Z,61.70
2019-05-19T11:45:29.331Z,56.50
2019-05-19T11:49:32.814Z,55.20
2019-05-19T11:53:36.321Z,53.90
2019-05-19T11:57:39.783Z,54.90
2019-05-19T12:01:43.313Z,54.50
2019-05-19T12:05:47.011Z,61.80
2019-05-19T12:09:50.746Z,61.20
2019-05-19T12:13:54.466Z,62.90
2019-05-19T12:17:58.259Z,59.60
2019-05-19T12:22:01.805Z,60.80
2019-05-19T12:26:05.541Z,58.90
2019-05-19T12:30:11.371Z,63.20
2019-05-19T12:34:14.839Z,63.50
2019-05-19T12:38:18.329Z,67.50
2019-05-19T12:42:22.058Z,65.30
2019-05-19T12:46:25.511Z,63.80
2019-05-19T12:50:28.989Z,61.10
2019-05-19T12:54:32.523Z,57.70
2019-05-19T12:58:36.362Z,57.20
2019-05-19T13:02:40.159Z,58.30
2019-05-19T13:06:43.664Z,61.20
2019-05-19T13:10:47.130Z,58.10
2019-05-19T13:14:50.870Z,53.40
2019-05-19T13:18:54.323Z,54.70
2019-05-19T13:22:57.833Z,53.50
2019-05-19T13:27:01.565Z,51.40
2019-05-19T13:31:05.123Z,49.70
2019-05-19T13:35:08.876Z,43.80
2019-05-19T13:39:12.547Z,48.70
2019-05-19T13:43:16.418Z,46.40
2019-05-19T13:47:20.254Z,49.10
2019-05-19T13:51:23.735Z,50.50
2019-05-19T13:55:27.267Z,47.30
2019-05-19T13:59:31.215Z,50.00
2019-05-19T14:03:34.719Z,51.10
2019-05-19T14:07:38.277Z,51.00
2019-05-19T14:11:41.774Z,49.30
2019-05-19T14:15:45.466Z,50.70
2019-05-19T14:19:49.247Z,51.60
2019-05-19T14:23:54.568Z,50.10
2019-05-19T14:27:58.123Z,52.80
2019-05-19T14:32:01.635Z,51.20
2019-05-19T14:36:05.205Z,53.20
2019-05-19T14:40:09.211Z,49.20
2019-05-19T14:44:12.655Z,50.00
2019-05-19T14:48:16.353Z,47.10
2019-05-19T14:52:19.845Z,49.50
2019-05-19T14:56:24.113Z,47.80
2019-05-19T15:00:27.638Z,49.30
2019-05-19T15:04:31.120Z,48.40
2019-05-19T15:08:34.570Z,47.50
2019-05-19T15:12:38.010Z,48.70
2019-05-19T15:16:41.465Z,51.80
2019-05-19T15:20:44.927Z,50.90
2019-05-19T15:24:48.383Z,50.50
2019-05-19T15:28:51.837Z,48.00
2019-05-19T15:32:55.286Z,50.80
2019-05-19T15:36:59.065Z,49.60
2019-05-19T15:41:02.575Z,50.90
2019-05-19T15:45:06.371Z,50.90
2019-05-19T15:49:09.821Z,55.20
2019-05-19T15:53:13.265Z,56.70
2019-05-19T15:57:16.710Z,55.50
2019-05-19T16:01:20.196Z,55.90
2019-05-19T16:05:23.710Z,55.70
2019-05-19T16:09:27.204Z,56.50
2019-05-19T16:13:30.658Z,55.50
2019-05-19T16:17:34.210Z,56.80
2019-05-19T16:21:38.190Z,57.00
2019-05-19T16:25:41.649Z,56.60
2019-05-19T16:29:45.110Z,55.90
2019-05-19T16:33:48.828Z,57.40
2019-05-19T16:37:52.278Z,57.20
2019-05-19T16:41:55.760Z,55.20
2019-05-19T16:45:59.477Z,53.80
2019-05-19T16:50:03.211Z,55.30
2019-05-19T16:54:08.547Z,58.20
2019-05-19T16:58:21.051Z,64.70
2019-05-19T17:02:17.174Z,67.10
2019-05-19T17:06:20.630Z,67.80
2019-05-19T17:10:24.335Z,70.10
2019-05-19T17:14:28.103Z,71.80
2019-05-19T17:18:31.569Z,73.50
2019-05-19T17:22:35.293Z,74.10
2019-05-19T17:26:38.769Z,75.20
2019-05-19T17:30:42.229Z,75.40
2019-05-19T17:34:45.673Z,76.20
2019-05-19T17:38:49.135Z,75.70
2019-05-19T17:42:52.591Z,75.30
2019-05-19T17:46:56.073Z,74.80
2019-05-19T17:51:00.411Z,75.10
2019-05-19T17:55:05.274Z,74.50
2019-05-19T17:59:16.234Z,77.70
2019-05-19T18:03:13.896Z,76.60
2019-05-19T18:07:17.362Z,77.90
2019-05-19T18:11:20.817Z,76.90
2019-05-19T18:15:24.524Z,77.30
2019-05-19T18:19:27.975Z,77.40
2019-05-19T18:23:31.685Z,76.10
2019-05-19T18:27:35.248Z,75.00
2019-05-19T18:31:38.722Z,72.80
2019-05-19T18:35:42.549Z,72.10
2019-05-19T18:39:46.070Z,70.50
2019-05-19T18:43:49.514Z,70.40
2019-05-19T18:47:53.048Z,71.70
2019-05-19T18:51:56.842Z,73.30
2019-05-19T18:56:00.748Z,74.20
2019-05-19T19:00:05.728Z,77.50
2019-05-19T19:04:09.329Z,77.40
2019-05-19T19:08:12.876Z,80.20
2019-05-19T19:12:16.329Z,80.90
2019-05-19T19:16:19.822Z,77.50
2019-05-19T19:20:23.432Z,77.40
2019-05-19T19:24:27.165Z,76.40
2019-05-19T19:28:30.935Z,75.60
2019-05-19T19:32:34.397Z,75.30
2019-05-19T19:36:37.879Z,74.30
2019-05-19T19:40:41.363Z,75.90
2019-05-19T19:44:44.886Z,75.40
2019-05-19T19:48:48.558Z,75.20
2019-05-19T19:52:52.042Z,74.80
2019-05-19T19:56:55.576Z,75.20
2019-05-19T20:00:59.030Z,74.10
2019-05-19T20:05:02.568Z,78.00
2019-05-19T20:09:06.200Z,82.10
2019-05-19T20:13:10.042Z,86.20
2019-05-19T20:17:13.554Z,88.00
2019-05-19T20:21:17.013Z,89.50
2019-05-19T20:25:20.475Z,90.70
2019-05-19T20:29:24.267Z,91.30
2019-05-19T20:33:28.055Z,91.90
2019-05-19T20:37:31.501Z,92.20
2019-05-19T20:41:34.946Z,92.50
2019-05-19T20:45:38.391Z,92.50
2019-05-19T20:49:41.881Z,92.50
2019-05-19T20:53:45.337Z,92.70
2019-05-19T20:57:48.794Z,93.00
2019-05-19T21:01:52.245Z,93.10
2019-05-19T21:05:55.949Z,93.30
2019-05-19T21:09:59.428Z,93.50
2019-05-19T21:14:02.875Z,94.30
2019-05-19T21:18:06.339Z,94.80
2019-05-19T21:22:09.871Z,94.50
2019-05-19T21:26:13.574Z,94.70
2019-05-19T21:30:17.813Z,94.80
2019-05-19T21:34:21.279Z,95.10
2019-05-19T21:38:24.734Z,95.10
2019-05-19T21:42:28.475Z,95.40
2019-05-19T21:46:31.930Z,95.20
2019-05-19T21:50:35.465Z,95.30
2019-05-19T21:54:38.915Z,95.50
2019-05-19T21:58:42.406Z,95.80
2019-05-19T22:02:45.886Z,95.90
2019-05-19T22:06:54.009Z,95.80
2019-05-19T22:10:57.490Z,96.00
2019-05-19T22:15:00.951Z,96.10
2019-05-19T22:19:04.859Z,96.20
2019-05-19T22:23:08.320Z,96.30
2019-05-19T22:27:11.765Z,96.30
2019-05-19T22:31:15.216Z,95.80
2019-05-19T22:35:18.949Z,95.80
2019-05-19T22:39:22.389Z,96.50
2019-05-19T22:43:25.854Z,96.70
2019-05-19T22:47:29.587Z,97.90
2019-05-19T22:51:33.059Z,96.90
2019-05-19T22:55:36.517Z,97.50
2019-05-19T22:59:39.985Z,97.30
2019-05-19T23:03:43.707Z,97.40
2019-05-19T23:07:47.154Z,96.80
2019-05-19T23:11:50.714Z,97.20
2019-05-19T23:15:54.162Z,98.80
2019-05-19T23:19:57.899Z,98.10
2019-05-19T23:24:01.373Z,98.60
2019-05-19T23:28:05.141Z,99.20
2019-05-19T23:32:08.600Z,98.60
2019-05-19T23:36:12.050Z,98.40
2019-05-19T23:40:15.572Z,97.80
2019-05-19T23:44:19.462Z,97.60
2019-05-19T23:48:22.919Z,98.10
2019-05-19T23:52:26.376Z,98.40
2019-05-19T23:56:29.829Z,99.10
